Time;durP1;ratioP1;P1;durP2;ratioP2;P2;SDS_P1;SDS_P2;PMS_P1;PMS_P2;Temp;Humidity;BMP_temperature;BMP_pressure;BME280_temperature;BME280_humidity;BME280_pressure;Samples;Min_cycle;Max_cycle;Signal;HPM_P1;HPM_P2
2021/04/29 00:00:28;;;;;;;8.70;1.90;;;17.50;69.60;;;;;;5036362;28;20079;-60
2021/04/29 00:02:53;;;;;;;3.60;1.73;;;17.60;69.80;;;;;;5032180;28;20053;-61
2021/04/29 00:05:20;;;;;;;4.72;1.70;;;17.50;69.80;;;;;;5036831;28;20180;-60
2021/04/29 00:07:46;;;;;;;5.32;1.70;;;17.50;69.80;;;;;;5040541;28;20026;-61
2021/04/29 00:10:16;;;;;;;6.35;2.05;;;17.50;69.90;;;;;;5022177;28;20094;-62
2021/04/29 00:12:42;;;;;;;7.10;1.90;;;17.50;69.80;;;;;;5033889;28;20052;-59
2021/04/29 00:15:08;;;;;;;4.13;1.80;;;17.40;69.70;;;;;;5031905;28;20030;-60
2021/04/29 00:17:34;;;;;;;7.22;2.08;;;17.50;69.80;;;;;;5035877;28;20029;-59
2021/04/29 00:19:59;;;;;;;5.57;1.80;;;17.50;70.10;;;;;;5043826;28;20040;-60
2021/04/29 00:22:25;;;;;;;5.90;1.90;;;17.40;70.10;;;;;;5037499;28;20030;-60
2021/04/29 00:24:50;;;;;;;3.83;1.70;;;17.40;70.10;;;;;;5036626;28;20028;-60
2021/04/29 00:27:16;;;;;;;3.95;1.80;;;17.40;70.10;;;;;;5035868;28;20144;-59
2021/04/29 00:29:41;;;;;;;4.80;1.67;;;17.30;70.20;;;;;;5038060;28;20503;-59
2021/04/29 00:32:07;;;;;;;3.60;1.67;;;17.30;70.20;;;;;;5035604;28;20104;-59
2021/04/29 00:34:32;;;;;;;3.95;1.88;;;17.30;70.30;;;;;;5038391;28;20040;-60
2021/04/29 00:36:58;;;;;;;8.90;2.17;;;17.30;70.30;;;;;;5043718;28;20095;-59
2021/04/29 00:39:23;;;;;;;3.95;1.90;;;17.30;70.30;;;;;;5030860;28;20037;-60
2021/04/29 00:41:50;;;;;;;6.22;1.58;;;17.30;70.40;;;;;;5031536;28;20037;-59
2021/04/29 00:44:15;;;;;;;4.13;2.00;;;17.20;70.50;;;;;;5031246;28;20071;-60
2021/04/29 00:46:41;;;;;;;3.92;1.73;;;17.20;70.30;;;;;;5031386;28;20119;-60
2021/04/29 00:49:06;;;;;;;4.70;1.20;;;17.20;70.50;;;;;;5033687;28;20466;-60
2021/04/29 00:51:32;;;;;;;4.38;1.55;;;17.20;70.60;;;;;;5032484;28;20056;-60
2021/04/29 00:53:57;;;;;;;4.47;1.45;;;17.20;70.70;;;;;;5031248;28;20034;-59
2021/04/29 00:56:23;;;;;;;6.95;1.50;;;17.20;70.80;;;;;;5032921;28;20013;-59
2021/04/29 00:58:50;;;;;;;3.75;1.50;;;17.20;70.90;;;;;;5029990;28;20481;-59
2021/04/29 01:01:15;;;;;;;4.78;1.25;;;17.10;70.90;;;;;;5020817;28;20057;-59
2021/04/29 01:03:50;;;;;;;2.63;1.50;;;17.10;70.80;;;;;;5048345;28;20071;-59
2021/04/29 01:06:18;;;;;;;3.88;1.40;;;17.10;70.90;;;;;;5023304;28;20026;-59
2021/04/29 01:08:52;;;;;;;5.80;1.50;;;17.10;71.00;;;;;;5036681;28;20067;-58
2021/04/29 01:11:20;;;;;;;4.78;1.33;;;17.00;71.10;;;;;;5038118;28;20075;-59
2021/04/29 01:13:51;;;;;;;3.63;1.55;;;17.00;71.30;;;;;;5025063;28;20037;-59
2021/04/29 01:16:17;;;;;;;2.58;1.58;;;17.00;71.20;;;;;;5039663;28;20024;-58
2021/04/29 01:18:43;;;;;;;3.88;1.30;;;17.00;71.40;;;;;;5025172;28;20041;-58
2021/04/29 01:21:14;;;;;;;3.55;1.42;;;17.00;71.30;;;;;;5024568;28;20071;-58
2021/04/29 01:24:27;;;;;;;2.63;1.20;;;17.00;71.30;;;;;;5017097;28;20354;-58
2021/04/29 01:26:57;;;;;;;3.47;2.05;;;17.00;71.40;;;;;;4966296;28;20438;-59
2021/04/29 01:29:30;;;;;;;4.15;1.80;;;16.90;71.50;;;;;;4951944;28;20576;-59
2021/04/29 01:31:55;;;;;;;2.17;1.40;;;16.90;71.70;;;;;;4978591;28;20041;-59
2021/04/29 01:34:22;;;;;;;4.18;1.58;;;16.90;71.80;;;;;;5034200;28;20032;-59
2021/04/29 01:36:48;;;;;;;6.05;2.03;;;16.90;72.00;;;;;;5032333;28;20496;-58
2021/04/29 01:39:14;;;;;;;5.97;2.30;;;16.90;72.00;;;;;;5026950;28;20017;-59
2021/04/29 01:41:43;;;;;;;5.03;2.28;;;16.80;71.90;;;;;;5035724;28;20105;-59
2021/04/29 01:44:08;;;;;;;2.60;2.13;;;16.90;72.00;;;;;;5043353;28;20045;-59
2021/04/29 01:46:34;;;;;;;4.30;2.63;;;16.80;71.90;;;;;;5018728;28;20044;-59
2021/04/29 01:49:01;;;;;;;3.83;2.35;;;16.80;72.00;;;;;;5032662;28;20118;-59
2021/04/29 01:51:26;;;;;;;3.50;2.25;;;16.80;72.10;;;;;;5037674;28;20083;-59
2021/04/29 01:53:52;;;;;;;3.85;2.05;;;16.80;72.20;;;;;;5032072;28;20033;-59
2021/04/29 01:56:18;;;;;;;4.28;2.30;;;16.80;72.20;;;;;;5030761;28;20414;-59
2021/04/29 01:58:44;;;;;;;7.82;2.60;;;16.80;72.30;;;;;;5035233;28;20035;-58
2021/04/29 02:01:09;;;;;;;2.83;2.13;;;16.70;72.20;;;;;;5040614;28;20051;-59
2021/04/29 02:03:35;;;;;;;5.85;2.53;;;16.70;72.20;;;;;;5044246;28;20101;-59
2021/04/29 02:06:00;;;;;;;3.67;2.33;;;16.70;72.20;;;;;;5042823;28;20025;-59
2021/04/29 02:08:26;;;;;;;67.70;7.18;;;16.70;72.30;;;;;;5042914;28;20100;-59
2021/04/29 02:10:52;;;;;;;90.55;9.43;;;16.70;72.20;;;;;;5035216;28;20061;-59
2021/04/29 02:13:17;;;;;;;61.33;8.00;;;16.60;72.10;;;;;;5015358;28;20025;-59
2021/04/29 02:15:50;;;;;;;49.15;6.65;;;16.60;72.00;;;;;;5029942;28;20037;-59
2021/04/29 02:18:18;;;;;;;30.30;5.45;;;16.60;72.20;;;;;;5027517;28;20120;-59
2021/04/29 02:20:45;;;;;;;36.35;4.80;;;16.60;72.20;;;;;;5018369;28;20533;-59
2021/04/29 02:23:12;;;;;;;79.95;6.78;;;16.60;72.20;;;;;;5046184;28;20516;-59
2021/04/29 02:25:38;;;;;;;47.70;5.78;;;16.60;72.20;;;;;;5025795;28;20037;-59
2021/04/29 02:28:04;;;;;;;40.33;5.50;;;16.60;72.20;;;;;;5022158;28;20071;-61
2021/04/29 02:30:29;;;;;;;63.60;5.80;;;16.50;72.10;;;;;;5042674;28;20032;-62
2021/04/29 02:32:55;;;;;;;59.85;5.28;;;16.60;72.10;;;;;;5042373;28;20036;-61
2021/04/29 02:35:20;;;;;;;84.22;7.50;;;16.50;72.10;;;;;;5035796;28;20104;-62
2021/04/29 02:37:48;;;;;;;85.65;7.88;;;16.50;71.90;;;;;;5043857;28;20029;-62
2021/04/29 02:40:14;;;;;;;76.43;6.63;;;16.50;71.80;;;;;;5039164;28;20021;-59
2021/04/29 02:42:40;;;;;;;69.00;6.78;;;16.50;71.90;;;;;;5044876;28;20036;-59
2021/04/29 02:45:09;;;;;;;69.43;6.63;;;16.50;71.80;;;;;;5030740;28;20033;-61
2021/04/29 02:47:36;;;;;;;62.88;6.32;;;16.50;71.80;;;;;;5035623;28;20036;-59
2021/04/29 02:50:02;;;;;;;50.10;5.50;;;16.50;71.70;;;;;;5017259;28;20034;-59
2021/04/29 02:52:27;;;;;;;84.00;6.78;;;16.40;71.60;;;;;;5044277;28;20029;-59
2021/04/29 02:54:53;;;;;;;149.80;10.98;;;16.40;71.60;;;;;;5033140;28;20453;-61
2021/04/29 02:57:22;;;;;;;169.85;13.00;;;16.40;71.60;;;;;;5041680;28;20033;-61
2021/04/29 02:59:48;;;;;;;182.80;12.07;;;16.40;71.60;;;;;;5035962;28;20033;-61
2021/04/29 03:02:13;;;;;;;202.60;14.48;;;16.40;71.60;;;;;;5030660;28;20412;-61
2021/04/29 03:04:39;;;;;;;147.77;12.77;;;16.40;71.60;;;;;;5028144;28;20041;-61
2021/04/29 03:07:05;;;;;;;158.50;11.30;;;16.40;71.70;;;;;;5042074;28;20537;-61
2021/04/29 03:09:31;;;;;;;112.63;9.52;;;16.30;71.70;;;;;;5038657;28;20075;-61
2021/04/29 03:11:56;;;;;;;137.43;10.63;;;16.30;71.60;;;;;;5041831;28;20029;-60
2021/04/29 03:14:22;;;;;;;115.60;9.68;;;16.30;71.60;;;;;;5036579;28;20069;-61
2021/04/29 03:16:47;;;;;;;128.65;11.73;;;16.30;71.70;;;;;;5031845;28;20108;-60
2021/04/29 03:19:13;;;;;;;146.00;13.32;;;16.30;71.90;;;;;;5032720;28;20300;-61
2021/04/29 03:21:38;;;;;;;170.80;14.00;;;16.20;71.80;;;;;;5044379;28;20112;-61
2021/04/29 03:24:04;;;;;;;141.48;13.13;;;16.20;71.90;;;;;;5033828;28;20097;-61
2021/04/29 03:26:29;;;;;;;144.98;14.35;;;16.20;71.90;;;;;;5045143;28;20096;-59
2021/04/29 03:28:55;;;;;;;162.95;13.52;;;16.20;72.00;;;;;;5032077;28;20057;-58
2021/04/29 03:31:20;;;;;;;152.65;13.60;;;16.20;72.00;;;;;;5031864;28;20022;-59
2021/04/29 03:33:46;;;;;;;165.85;14.38;;;16.20;72.00;;;;;;5033502;28;20033;-59
2021/04/29 03:36:11;;;;;;;164.13;14.00;;;16.20;72.00;;;;;;5033497;28;20025;-59
2021/04/29 03:38:37;;;;;;;162.30;13.38;;;16.10;71.90;;;;;;5043901;28;20397;-59
2021/04/29 03:41:02;;;;;;;158.88;14.27;;;16.10;72.00;;;;;;5038473;28;20046;-59
2021/04/29 03:43:28;;;;;;;146.65;14.25;;;16.10;72.20;;;;;;5039809;28;20081;-59
2021/04/29 03:45:53;;;;;;;141.90;13.88;;;16.10;72.30;;;;;;5044945;28;20104;-61
2021/04/29 03:48:19;;;;;;;143.20;12.10;;;16.10;72.30;;;;;;5023307;28;20064;-61
2021/04/29 03:50:44;;;;;;;99.88;10.70;;;16.00;72.20;;;;;;5041989;28;20029;-61
2021/04/29 03:53:10;;;;;;;122.60;11.40;;;16.00;72.30;;;;;;5039251;28;20025;-61
2021/04/29 03:55:35;;;;;;;127.28;12.05;;;15.90;72.10;;;;;;5045461;28;20025;-61
2021/04/29 03:58:01;;;;;;;101.50;10.30;;;16.00;72.10;;;;;;5041228;28;20025;-61
2021/04/29 04:00:26;;;;;;;114.82;11.07;;;16.00;72.20;;;;;;5046320;28;20025;-61
2021/04/29 04:02:52;;;;;;;124.93;11.30;;;16.00;72.40;;;;;;5039965;28;20488;-61
2021/04/29 04:05:17;;;;;;;105.20;9.52;;;16.00;72.20;;;;;;5041768;28;20072;-62
2021/04/29 04:07:43;;;;;;;107.30;11.35;;;16.00;72.20;;;;;;5022510;28;20129;-61
2021/04/29 04:10:09;;;;;;;128.25;10.85;;;16.00;72.20;;;;;;5043774;28;20040;-61
2021/04/29 04:12:35;;;;;;;97.82;9.82;;;16.00;72.10;;;;;;5032581;28;20049;-60
2021/04/29 04:15:01;;;;;;;85.10;8.85;;;15.90;71.80;;;;;;5043652;28;20472;-60
2021/04/29 04:17:26;;;;;;;92.78;9.73;;;15.90;72.00;;;;;;5043909;28;20033;-61
2021/04/29 04:19:52;;;;;;;66.65;7.90;;;15.90;72.10;;;;;;5045849;28;20029;-60
2021/04/29 04:22:17;;;;;;;89.75;8.32;;;16.00;72.10;;;;;;5040929;28;20041;-61
2021/04/29 04:24:43;;;;;;;94.75;9.15;;;15.90;72.00;;;;;;5047907;28;20017;-61
2021/04/29 04:27:08;;;;;;;85.68;8.40;;;15.90;72.20;;;;;;5046605;28;20068;-61
2021/04/29 04:29:34;;;;;;;67.00;8.02;;;15.90;72.30;;;;;;5043323;28;20487;-61
2021/04/29 04:32:00;;;;;;;80.63;9.02;;;15.90;72.40;;;;;;5051598;28;20021;-61
2021/04/29 04:34:25;;;;;;;58.95;8.57;;;15.80;72.30;;;;;;5036335;28;20099;-61
2021/04/29 04:36:51;;;;;;;84.38;8.32;;;15.80;72.40;;;;;;5038904;28;20021;-61
2021/04/29 04:39:16;;;;;;;55.70;7.20;;;15.80;72.50;;;;;;5034655;28;20029;-61
2021/04/29 04:41:42;;;;;;;71.40;7.82;;;15.80;72.50;;;;;;5034366;28;20507;-61
2021/04/29 04:44:07;;;;;;;63.40;7.38;;;15.80;72.50;;;;;;5040759;28;20029;-61
2021/04/29 04:46:33;;;;;;;65.97;7.07;;;15.80;72.60;;;;;;5032624;28;20034;-61
2021/04/29 04:48:58;;;;;;;65.90;7.45;;;15.70;72.60;;;;;;5034118;28;20056;-61
2021/04/29 04:51:24;;;;;;;57.50;6.90;;;15.70;72.60;;;;;;5036588;28;20087;-61
2021/04/29 04:53:50;;;;;;;45.83;6.93;;;15.70;72.70;;;;;;5039985;28;20028;-61
2021/04/29 04:56:16;;;;;;;57.42;6.88;;;15.70;72.90;;;;;;5037933;28;20358;-61
2021/04/29 04:58:41;;;;;;;47.28;6.28;;;15.70;72.90;;;;;;5037934;28;20025;-61
2021/04/29 05:01:07;;;;;;;58.42;7.05;;;15.70;72.80;;;;;;5019103;28;20502;-61
2021/04/29 05:03:32;;;;;;;59.50;7.50;;;15.70;72.90;;;;;;5037331;28;20104;-61
2021/04/29 05:05:58;;;;;;;59.70;6.78;;;15.70;73.00;;;;;;5032199;28;20037;-61
2021/04/29 05:08:23;;;;;;;43.13;6.30;;;15.70;73.20;;;;;;5039718;28;20112;-61
2021/04/29 05:10:49;;;;;;;47.95;6.80;;;15.70;73.10;;;;;;5037508;28;20135;-61
2021/04/29 05:13:14;;;;;;;53.30;5.95;;;15.80;73.20;;;;;;5029330;28;20383;-61
2021/04/29 05:15:40;;;;;;;46.35;7.13;;;15.60;73.10;;;;;;5035216;28;20037;-61
2021/04/29 05:18:05;;;;;;;44.47;6.18;;;15.60;73.20;;;;;;5037940;28;20039;-61
2021/04/29 05:20:31;;;;;;;27.25;5.07;;;15.60;73.30;;;;;;5021525;28;20036;-61
2021/04/29 05:22:56;;;;;;;45.35;6.78;;;15.60;73.20;;;;;;5037708;28;20079;-61
2021/04/29 05:25:22;;;;;;;42.45;5.70;;;15.60;73.10;;;;;;5020523;28;20112;-61
2021/04/29 05:27:49;;;;;;;35.97;5.45;;;15.60;73.30;;;;;;5013383;28;20469;-61
2021/04/29 05:30:15;;;;;;;37.40;4.97;;;15.60;73.30;;;;;;5036319;28;20017;-61
2021/04/29 05:32:40;;;;;;;39.88;5.68;;;15.60;73.30;;;;;;5036282;28;20096;-61
2021/04/29 05:35:06;;;;;;;44.33;4.95;;;15.50;73.30;;;;;;5037855;28;20031;-61
2021/04/29 05:37:32;;;;;;;30.38;4.57;;;15.60;73.50;;;;;;5034321;28;20120;-61
2021/04/29 05:39:57;;;;;;;37.40;4.82;;;15.50;73.30;;;;;;5035683;28;20048;-61
2021/04/29 05:42:23;;;;;;;32.67;4.32;;;15.50;73.40;;;;;;5033889;28;20021;-61
2021/04/29 05:44:48;;;;;;;38.67;4.57;;;15.50;73.50;;;;;;5030669;28;20364;-61
2021/04/29 05:47:14;;;;;;;37.42;4.45;;;15.50;73.50;;;;;;5038840;28;20063;-61
2021/04/29 05:49:42;;;;;;;27.50;4.95;;;15.50;73.50;;;;;;5020906;28;20381;-61
2021/04/29 05:52:09;;;;;;;31.05;4.75;;;15.50;73.60;;;;;;5039707;28;20033;-61
2021/04/29 05:54:35;;;;;;;36.70;4.40;;;15.40;73.60;;;;;;5023827;28;20113;-61
2021/04/29 05:57:01;;;;;;;32.55;4.38;;;15.40;73.50;;;;;;5037525;28;20092;-61
2021/04/29 05:59:26;;;;;;;26.15;4.63;;;15.40;73.60;;;;;;5038163;28;20024;-61
2021/04/29 06:01:52;;;;;;;28.00;4.05;;;15.40;73.60;;;;;;5032385;28;20033;-61
2021/04/29 06:04:18;;;;;;;23.20;4.00;;;15.40;73.60;;;;;;5042571;28;20055;-61
2021/04/29 06:06:45;;;;;;;25.67;3.60;;;15.40;73.50;;;;;;5013826;28;20072;-61
2021/04/29 06:09:11;;;;;;;26.98;4.30;;;15.40;73.40;;;;;;5025652;28;20017;-61
2021/04/29 06:11:36;;;;;;;32.97;4.07;;;15.50;73.50;;;;;;5027732;28;20029;-61
2021/04/29 06:14:02;;;;;;;28.15;4.85;;;15.40;73.60;;;;;;5013384;28;20017;-61
2021/04/29 06:16:28;;;;;;;26.60;4.30;;;15.50;73.70;;;;;;5025583;28;20477;-61
2021/04/29 06:18:53;;;;;;;38.55;4.43;;;15.50;73.80;;;;;;5023753;28;20147;-61
2021/04/29 06:21:19;;;;;;;22.15;3.70;;;15.50;73.90;;;;;;5029644;28;20037;-61
2021/04/29 06:23:44;;;;;;;19.15;3.70;;;15.50;73.90;;;;;;5025670;28;20029;-61
2021/04/29 06:26:10;;;;;;;23.65;4.38;;;15.50;73.70;;;;;;5029478;28;20056;-61
2021/04/29 06:28:35;;;;;;;21.55;4.55;;;15.50;73.80;;;;;;5041444;28;20505;-61
2021/04/29 06:31:01;;;;;;;39.83;5.28;;;15.50;73.70;;;;;;5035337;28;20078;-61
2021/04/29 06:33:26;;;;;;;34.38;4.82;;;15.60;73.80;;;;;;5038571;28;20119;-61
2021/04/29 06:35:52;;;;;;;24.10;5.13;;;15.60;74.00;;;;;;5032413;28;20075;-61
2021/04/29 06:38:17;;;;;;;35.03;4.85;;;15.60;74.10;;;;;;5039366;28;20111;-61
2021/04/29 06:40:43;;;;;;;28.55;4.80;;;15.60;74.10;;;;;;5019536;28;20389;-61
2021/04/29 06:43:09;;;;;;;27.90;4.53;;;15.70;74.20;;;;;;5039408;28;20029;-61
2021/04/29 06:45:34;;;;;;;28.35;4.95;;;15.70;73.90;;;;;;5035882;28;20037;-61
2021/04/29 06:48:00;;;;;;;37.25;5.63;;;15.70;74.20;;;;;;5031159;28;20481;-61
2021/04/29 06:50:25;;;;;;;29.30;5.38;;;15.70;73.50;;;;;;5033977;28;20499;-60
2021/04/29 06:52:51;;;;;;;39.00;5.43;;;15.70;73.50;;;;;;5022876;28;20794;-61
2021/04/29 06:55:16;;;;;;;42.25;5.82;;;15.70;73.90;;;;;;5036730;28;20110;-62
2021/04/29 06:57:42;;;;;;;95.53;9.43;;;15.80;74.40;;;;;;5030487;28;20036;-61
2021/04/29 07:00:08;;;;;;;118.93;12.32;;;15.80;73.90;;;;;;5028587;28;20041;-61
2021/04/29 07:02:33;;;;;;;49.08;6.80;;;15.80;74.00;;;;;;5026811;28;20067;-61
2021/04/29 07:04:59;;;;;;;45.38;5.80;;;15.80;73.90;;;;;;5023119;28;20093;-61
2021/04/29 07:07:24;;;;;;;38.45;5.38;;;15.80;74.40;;;;;;5028549;28;20464;-61
2021/04/29 07:09:50;;;;;;;42.45;6.30;;;15.80;74.50;;;;;;5027939;28;20046;-61
2021/04/29 07:12:16;;;;;;;36.85;5.00;;;15.80;74.50;;;;;;5034540;28;20036;-61
2021/04/29 07:14:41;;;;;;;39.67;6.03;;;15.80;74.60;;;;;;5011324;28;20030;-62
2021/04/29 07:17:07;;;;;;;135.52;14.50;;;15.80;75.00;;;;;;5028354;28;20041;-61
2021/04/29 07:19:32;;;;;;;76.93;9.25;;;15.80;75.40;;;;;;5028782;28;20037;-62
2021/04/29 07:21:58;;;;;;;53.65;7.22;;;15.80;75.30;;;;;;5031768;28;20037;-62
2021/04/29 07:24:24;;;;;;;50.70;6.40;;;15.90;75.50;;;;;;5020820;28;20451;-61
2021/04/29 07:26:49;;;;;;;52.28;5.72;;;15.80;75.40;;;;;;5037453;28;20055;-61
2021/04/29 07:29:15;;;;;;;65.75;6.38;;;15.90;75.80;;;;;;5031226;28;20012;-61
2021/04/29 07:31:41;;;;;;;37.00;5.97;;;15.90;75.60;;;;;;5035163;28;20025;-61
2021/04/29 07:34:06;;;;;;;50.15;5.95;;;15.90;75.40;;;;;;5026344;28;20469;-61
2021/04/29 07:36:33;;;;;;;50.97;6.28;;;15.90;75.40;;;;;;5035538;28;20120;-61
2021/04/29 07:38:59;;;;;;;42.00;5.88;;;15.90;75.90;;;;;;5027761;28;20660;-61
2021/04/29 07:41:26;;;;;;;61.17;6.75;;;15.90;75.80;;;;;;5032437;28;20532;-61
2021/04/29 07:43:52;;;;;;;61.50;7.45;;;16.00;76.20;;;;;;5033287;28;20072;-61
2021/04/29 07:46:18;;;;;;;57.38;7.25;;;16.00;76.50;;;;;;5039459;28;20025;-61
2021/04/29 07:48:43;;;;;;;53.40;7.20;;;16.00;76.10;;;;;;5022701;28;20053;-61
2021/04/29 07:51:09;;;;;;;67.15;7.88;;;16.00;76.20;;;;;;5030223;28;20445;-59
2021/04/29 07:53:34;;;;;;;53.53;6.35;;;16.00;76.40;;;;;;5039263;28;20029;-61
2021/04/29 07:56:00;;;;;;;66.18;7.78;;;16.00;76.20;;;;;;5041873;28;20029;-61
2021/04/29 07:58:26;;;;;;;64.07;7.40;;;16.00;76.50;;;;;;5031462;28;20022;-61
2021/04/29 08:00:52;;;;;;;91.65;8.63;;;16.00;76.50;;;;;;5033005;28;20497;-61
2021/04/29 08:03:17;;;;;;;60.13;7.22;;;16.10;77.20;;;;;;5015174;28;20029;-62
2021/04/29 08:05:43;;;;;;;65.47;7.97;;;16.10;76.30;;;;;;5024753;28;20038;-62
2021/04/29 08:08:09;;;;;;;69.95;8.10;;;16.10;76.40;;;;;;5032934;28;20013;-61
2021/04/29 08:10:35;;;;;;;61.58;7.53;;;16.10;76.50;;;;;;5026620;28;20029;-62
2021/04/29 08:13:00;;;;;;;57.60;8.52;;;16.10;76.30;;;;;;5036186;28;20493;-62
2021/04/29 08:15:26;;;;;;;47.85;6.22;;;16.10;76.40;;;;;;5040197;28;20030;-61
2021/04/29 08:17:51;;;;;;;76.28;7.30;;;16.10;76.10;;;;;;5032014;28;20037;-61
2021/04/29 08:20:17;;;;;;;47.80;7.57;;;16.20;76.00;;;;;;5035092;28;20071;-61
2021/04/29 08:22:42;;;;;;;49.47;6.75;;;16.20;76.30;;;;;;5016812;28;20041;-61
2021/04/29 08:25:08;;;;;;;73.05;9.27;;;16.20;76.50;;;;;;5013038;28;20028;-61
2021/04/29 08:27:34;;;;;;;74.05;8.38;;;16.20;76.40;;;;;;5028351;28;20502;-61
2021/04/29 08:30:00;;;;;;;82.22;8.88;;;16.30;76.30;;;;;;5033959;28;20036;-61
2021/04/29 08:32:25;;;;;;;59.65;7.40;;;16.30;76.10;;;;;;5030153;28;20699;-61
2021/04/29 08:34:51;;;;;;;189.43;18.52;;;16.30;76.20;;;;;;5036794;28;20065;-61
2021/04/29 08:37:19;;;;;;;115.18;13.05;;;16.30;76.70;;;;;;5038719;28;20166;-62
2021/04/29 08:39:45;;;;;;;101.40;11.05;;;16.40;77.40;;;;;;5040736;28;20036;-62
2021/04/29 08:42:14;;;;;;;72.65;9.25;;;16.40;77.70;;;;;;5015864;28;20929;-62
2021/04/29 08:44:40;;;;;;;92.57;9.20;;;16.50;77.60;;;;;;5034421;28;20407;-62
2021/04/29 08:47:06;;;;;;;80.68;10.27;;;16.40;78.30;;;;;;5029850;28;20046;-61
2021/04/29 08:49:31;;;;;;;83.03;10.40;;;16.50;78.10;;;;;;5031318;28;20033;-62
2021/04/29 08:51:57;;;;;;;73.13;8.45;;;16.50;77.70;;;;;;5020732;28;20642;-62
2021/04/29 08:54:22;;;;;;;98.13;10.27;;;16.50;77.50;;;;;;5007333;28;20112;-61
2021/04/29 08:56:48;;;;;;;106.25;12.15;;;16.60;78.30;;;;;;5031478;28;20112;-62
2021/04/29 08:59:14;;;;;;;71.28;9.20;;;16.60;78.10;;;;;;5029436;28;20044;-61
2021/04/29 09:01:43;;;;;;;103.07;10.85;;;16.70;78.00;;;;;;5035644;28;20512;-62
2021/04/29 09:04:14;;;;;;;147.15;15.00;;;16.70;78.50;;;;;;5019184;28;20071;-62
2021/04/29 09:06:40;;;;;;;168.18;17.85;;;16.70;78.60;;;;;;5039188;28;20032;-60
2021/04/29 09:09:06;;;;;;;130.05;13.88;;;16.70;78.40;;;;;;5034603;28;20466;-60
2021/04/29 09:11:31;;;;;;;154.43;16.02;;;16.80;78.20;;;;;;5017814;28;20051;-61
2021/04/29 09:14:02;;;;;;;129.52;15.75;;;16.80;78.00;;;;;;5030151;28;20036;-62
2021/04/29 09:16:38;;;;;;;94.75;12.40;;;16.80;78.20;;;;;;5032385;28;20032;-62
2021/04/29 09:19:03;;;;;;;;;;;16.80;78.40;;;;;;5035751;28;20426;-60
2021/04/29 09:21:31;;;;;;;102.68;12.45;;;16.80;78.50;;;;;;5028458;28;20004;-61
2021/04/29 09:23:57;;;;;;;113.50;13.40;;;16.90;78.40;;;;;;5012920;28;20149;-59
2021/04/29 09:26:22;;;;;;;131.77;15.35;;;16.90;78.40;;;;;;5037040;28;20108;-60
2021/04/29 09:28:53;;;;;;;151.55;13.05;;;16.90;78.60;;;;;;5038088;28;20041;-61
2021/04/29 09:31:25;;;;;;;125.82;15.23;;;17.00;79.10;;;;;;5031626;28;20021;-61
2021/04/29 09:33:58;;;;;;;122.35;14.38;;;17.00;78.50;;;;;;5013847;28;20033;-60
2021/04/29 09:36:28;;;;;;;101.30;11.63;;;17.00;78.50;;;;;;5025647;28;20033;-63
2021/04/29 09:38:57;;;;;;;138.70;15.68;;;17.10;78.40;;;;;;5034653;28;20069;-62
2021/04/29 09:41:25;;;;;;;167.98;18.50;;;17.10;78.40;;;;;;5031779;28;20028;-60
2021/04/29 09:43:52;;;;;;;180.27;20.10;;;17.10;78.00;;;;;;5039758;28;20460;-60
2021/04/29 09:46:17;;;;;;;130.35;13.90;;;17.10;77.80;;;;;;5032675;28;20770;-60
2021/04/29 09:48:43;;;;;;;151.43;16.20;;;17.20;78.00;;;;;;5038772;28;20044;-60
2021/04/29 09:51:08;;;;;;;166.32;18.40;;;17.20;77.80;;;;;;5029690;28;20041;-60
2021/04/29 09:53:38;;;;;;;119.65;16.27;;;17.30;77.70;;;;;;5036159;28;20087;-60
2021/04/29 09:56:11;;;;;;;148.98;16.45;;;17.30;77.70;;;;;;5036244;28;20021;-60
2021/04/29 09:58:37;;;;;;;127.95;13.52;;;17.30;77.50;;;;;;5035908;28;20021;-60
2021/04/29 10:01:04;;;;;;;144.75;15.77;;;17.40;77.40;;;;;;5040296;28;20029;-60
2021/04/29 10:03:29;;;;;;;91.75;13.73;;;17.40;77.40;;;;;;5020300;28;20136;-61
2021/04/29 10:05:55;;;;;;;118.38;13.80;;;17.40;77.40;;;;;;5036738;28;20108;-60
2021/04/29 10:08:25;;;;;;;129.75;15.65;;;17.40;77.60;;;;;;5042267;28;20127;-60
2021/04/29 10:10:52;;;;;;;126.78;15.70;;;17.50;77.30;;;;;;5015830;28;20091;-60
2021/04/29 10:13:18;;;;;;;130.18;14.48;;;17.50;77.50;;;;;;5033176;28;20056;-60
2021/04/29 10:15:44;;;;;;;95.93;13.32;;;17.60;77.20;;;;;;5031189;28;20544;-60
2021/04/29 10:18:10;;;;;;;121.63;14.65;;;17.60;77.00;;;;;;5036860;28;20052;-60
2021/04/29 10:20:37;;;;;;;120.32;14.07;;;17.60;76.90;;;;;;5024914;28;20044;-62
2021/04/29 10:23:03;;;;;;;98.70;12.32;;;17.60;76.80;;;;;;5030759;28;20025;-60
2021/04/29 10:25:32;;;;;;;95.50;12.15;;;17.60;76.70;;;;;;5019076;28;20360;-59
2021/04/29 10:27:58;;;;;;;91.97;11.65;;;17.70;76.10;;;;;;5033593;28;20094;-60
2021/04/29 10:30:35;;;;;;;93.03;11.80;;;17.70;76.30;;;;;;5017428;28;20380;-60
2021/04/29 10:33:14;;;;;;;90.15;11.25;;;17.70;76.80;;;;;;5034201;28;20477;-61
2021/04/29 10:35:57;;;;;;;88.18;11.43;;;17.70;76.60;;;;;;5026040;28;20040;-61
2021/04/29 10:38:30;;;;;;;112.97;13.00;;;17.80;76.30;;;;;;5036948;28;20028;-60
2021/04/29 10:41:05;;;;;;;104.50;14.27;;;17.80;76.40;;;;;;5035791;28;20413;-59
2021/04/29 10:43:33;;;;;;;88.57;11.63;;;17.80;76.60;;;;;;5034232;28;20339;-62
2021/04/29 10:46:01;;;;;;;118.38;13.30;;;17.80;75.80;;;;;;5033642;28;20032;-60
2021/04/29 10:48:27;;;;;;;103.22;12.02;;;17.90;76.10;;;;;;5037997;28;20033;-62
2021/04/29 10:50:53;;;;;;;68.85;10.68;;;17.90;76.00;;;;;;5037443;28;20033;-60
2021/04/29 10:53:29;;;;;;;74.05;10.25;;;17.90;75.60;;;;;;5033402;28;20031;-60
2021/04/29 10:55:59;;;;;;;104.75;10.82;;;18.00;75.40;;;;;;5021416;28;20033;-60
2021/04/29 10:58:25;;;;;;;67.15;10.10;;;18.00;75.30;;;;;;5019967;28;20452;-62
2021/04/29 11:01:14;;;;;;;87.13;12.30;;;18.10;74.90;;;;;;5019487;28;20112;-62
2021/04/29 11:03:48;;;;;;;102.93;11.65;;;18.10;74.50;;;;;;5031148;28;20049;-61
2021/04/29 11:06:25;;;;;;;67.93;10.38;;;18.10;75.30;;;;;;5007329;28;20040;-59
2021/04/29 11:08:53;;;;;;;58.55;9.05;;;18.20;75.00;;;;;;5034001;28;20397;-60
2021/04/29 11:11:29;;;;;;;61.38;8.73;;;18.20;74.80;;;;;;5017502;28;20135;-59
2021/04/29 11:14:01;;;;;;;69.75;9.30;;;18.20;74.30;;;;;;5036976;28;20482;-60
2021/04/29 11:16:27;;;;;;;56.90;8.35;;;18.30;74.00;;;;;;5033766;28;20025;-61
2021/04/29 11:18:53;;;;;;;56.90;8.48;;;18.30;74.10;;;;;;5038717;28;20029;-61
2021/04/29 11:21:29;;;;;;;52.53;7.30;;;18.30;74.00;;;;;;5033531;28;20037;-60
2021/04/29 11:23:57;;;;;;;58.88;8.40;;;18.30;74.00;;;;;;5040327;28;20037;-60
2021/04/29 11:26:22;;;;;;;53.70;8.15;;;18.40;73.80;;;;;;5030477;28;20386;-62
2021/04/29 11:28:50;;;;;;;58.13;8.68;;;18.40;73.70;;;;;;5038000;28;20067;-61
2021/04/29 11:31:17;;;;;;;53.03;6.82;;;18.40;73.40;;;;;;5037485;28;20036;-62
2021/04/29 11:33:48;;;;;;;57.47;7.45;;;18.40;73.20;;;;;;5036398;28;20364;-60
2021/04/29 11:36:18;;;;;;;45.33;8.00;;;18.50;73.10;;;;;;5037075;28;20056;-60
2021/04/29 11:38:57;;;;;;;55.95;7.07;;;18.50;73.10;;;;;;5039876;28;20021;-61
2021/04/29 11:41:23;;;;;;;71.95;9.07;;;18.50;72.80;;;;;;5044468;28;20027;-61
2021/04/29 11:44:03;;;;;;;56.42;7.68;;;18.50;72.60;;;;;;5037352;28;20419;-62
2021/04/29 11:46:29;;;;;;;69.13;8.13;;;18.60;72.60;;;;;;5046549;28;20038;-60
2021/04/29 11:49:02;;;;;;;52.88;7.75;;;18.70;72.50;;;;;;5018427;28;20048;-61
2021/04/29 11:51:29;;;;;;;42.20;7.78;;;18.60;72.40;;;;;;5040305;28;20096;-60
2021/04/29 11:53:59;;;;;;;56.05;7.35;;;18.70;72.50;;;;;;5044773;28;20380;-60
2021/04/29 11:56:25;;;;;;;63.15;7.85;;;18.70;72.10;;;;;;5044583;28;20051;-61
2021/04/29 11:59:02;;;;;;;56.38;7.63;;;18.70;72.10;;;;;;5021011;28;20406;-62
2021/04/29 12:01:28;;;;;;;40.72;6.97;;;18.70;71.90;;;;;;5039872;28;20817;-61
2021/04/29 12:03:53;;;;;;;49.28;7.03;;;18.80;71.90;;;;;;5033332;28;20127;-60
2021/04/29 12:06:19;;;;;;;58.40;7.68;;;18.80;71.80;;;;;;5038999;28;20051;-60
2021/04/29 12:08:44;;;;;;;50.58;6.82;;;18.80;71.70;;;;;;5038194;28;20473;-61
2021/04/29 12:11:10;;;;;;;48.35;8.02;;;18.80;71.50;;;;;;5032706;28;20037;-61
2021/04/29 12:13:54;;;;;;;38.75;7.15;;;18.80;71.40;;;;;;5028646;28;20101;-60
2021/04/29 12:16:21;;;;;;;91.95;10.30;;;18.90;71.40;;;;;;5031760;28;20079;-62
2021/04/29 12:18:48;;;;;;;47.60;7.28;;;18.90;71.40;;;;;;5017270;28;20033;-59
2021/04/29 12:21:15;;;;;;;53.40;6.47;;;18.90;71.10;;;;;;5039726;28;20029;-62
2021/04/29 12:23:40;;;;;;;51.70;7.70;;;18.90;71.10;;;;;;5038419;28;20102;-60
2021/04/29 12:26:07;;;;;;;62.47;8.20;;;19.00;71.00;;;;;;5033315;28;20697;-60
2021/04/29 12:28:40;;;;;;;97.25;11.30;;;19.00;70.90;;;;;;5036512;28;20060;-60
2021/04/29 12:31:14;;;;;;;68.75;8.38;;;19.00;71.00;;;;;;5027352;28;20032;-61